createdAt,value
2022-10-05T00:02:26.272Z,6.49
2022-10-05T00:04:55.585Z,6.26
2022-10-05T00:07:24.317Z,6.44
2022-10-05T00:09:59.075Z,6.29
2022-10-05T00:12:28.208Z,6.23
2022-10-05T00:15:00.907Z,6.62
2022-10-05T00:17:30.143Z,6.56
2022-10-05T00:19:57.005Z,6.53
2022-10-05T00:22:31.884Z,6.33
2022-10-05T00:25:01.945Z,6.24
2022-10-05T00:27:36.124Z,6.05
2022-10-05T00:30:13.357Z,5.98
2022-10-05T00:32:39.938Z,5.91
2022-10-05T00:35:07.001Z,5.93
2022-10-05T00:37:33.681Z,5.94
2022-10-05T00:40:00.325Z,5.84
2022-10-05T00:42:51.862Z,5.78
2022-10-05T00:45:27.358Z,5.90
2022-10-05T00:48:12.535Z,5.89
2022-10-05T00:51:02.972Z,6.14
2022-10-05T00:54:02.264Z,6.23
2022-10-05T00:56:53.258Z,6.22
2022-10-05T00:59:25.692Z,6.47
2022-10-05T01:02:18.435Z,6.59
2022-10-05T01:04:55.899Z,6.49
2022-10-05T01:07:53.216Z,6.19
2022-10-05T01:10:28.912Z,6.33
2022-10-05T01:13:08.701Z,6.10
2022-10-05T01:15:51.640Z,6.09
2022-10-05T01:18:56.453Z,6.33
2022-10-05T01:21:25.879Z,6.45
2022-10-05T01:24:16.882Z,6.36
2022-10-05T01:27:11.491Z,6.06
2022-10-05T01:30:02.735Z,5.73
2022-10-05T01:32:42.921Z,5.50
2022-10-05T01:35:30.311Z,5.51
2022-10-05T01:38:11.894Z,5.71
2022-10-05T01:41:22.853Z,5.84
2022-10-05T01:44:06.491Z,5.83
2022-10-05T01:46:43.769Z,5.74
2022-10-05T01:49:46.201Z,5.64
2022-10-05T01:52:32.164Z,5.63
2022-10-05T01:55:14.137Z,5.84
2022-10-05T01:57:54.176Z,6.11
2022-10-05T02:00:20.993Z,6.36
2022-10-05T02:02:52.397Z,6.26
2022-10-05T02:05:27.773Z,5.95
2022-10-05T02:08:01.723Z,5.89
2022-10-05T02:10:37.044Z,6.22
2022-10-05T02:13:15.506Z,6.52
2022-10-05T02:15:52.861Z,6.62
2022-10-05T02:18:31.501Z,6.44
2022-10-05T02:21:02.224Z,5.88
2022-10-05T02:23:33.580Z,6.04
2022-10-05T02:26:01.409Z,6.20
2022-10-05T02:28:44.025Z,6.09
2022-10-05T02:31:14.096Z,6.13
2022-10-05T02:33:40.658Z,6.20
2022-10-05T02:36:17.074Z,6.15
2022-10-05T02:38:48.821Z,6.11
2022-10-05T02:41:34.042Z,6.35
2022-10-05T02:44:24.283Z,6.51
2022-10-05T02:47:05.107Z,6.52
2022-10-05T02:49:44.884Z,6.52
2022-10-05T02:52:26.789Z,6.53
2022-10-05T02:55:13.653Z,6.52
2022-10-05T02:57:45.672Z,6.61
2022-10-05T03:00:18.070Z,6.59
2022-10-05T03:03:08.370Z,6.53
2022-10-05T03:05:47.034Z,6.73
2022-10-05T03:08:24.917Z,6.65
2022-10-05T03:11:04.343Z,6.74
2022-10-05T03:13:36.848Z,6.90
2022-10-05T03:16:26.559Z,6.93
2022-10-05T03:18:59.159Z,7.00
2022-10-05T03:21:46.042Z,6.97
2022-10-05T03:24:31.538Z,7.19
2022-10-05T03:27:09.801Z,7.27
2022-10-05T03:29:47.506Z,7.41
2022-10-05T03:32:47.699Z,7.50
2022-10-05T03:35:34.789Z,7.53
2022-10-05T03:38:19.487Z,7.57
2022-10-05T03:40:47.000Z,7.68
2022-10-05T03:43:34.281Z,7.79
2022-10-05T03:46:11.800Z,7.83
2022-10-05T03:48:56.663Z,7.98
2022-10-05T03:51:31.202Z,8.16
2022-10-05T03:54:09.988Z,8.46
2022-10-05T03:56:46.185Z,8.32
2022-10-05T03:59:20.608Z,8.45
2022-10-05T04:02:01.318Z,8.24
2022-10-05T04:04:37.293Z,8.28
2022-10-05T04:07:06.206Z,8.31
2022-10-05T04:09:37.371Z,8.26
2022-10-05T04:12:19.718Z,8.50
2022-10-05T04:14:51.050Z,8.61
2022-10-05T04:17:27.603Z,8.69
2022-10-05T04:20:06.167Z,8.71
2022-10-05T04:22:46.048Z,8.66
2022-10-05T04:25:22.658Z,8.92
2022-10-05T04:28:16.038Z,8.51
2022-10-05T04:30:46.985Z,8.55
2022-10-05T04:33:15.884Z,8.79
2022-10-05T04:36:02.795Z,8.82
2022-10-05T04:38:35.408Z,8.67
2022-10-05T04:41:30.326Z,8.77
2022-10-05T04:44:10.252Z,8.99
2022-10-05T04:46:47.087Z,8.87
2022-10-05T04:49:35.146Z,8.88
2022-10-05T04:52:32.788Z,8.72
2022-10-05T04:55:27.322Z,8.61
2022-10-05T04:58:17.076Z,8.44
2022-10-05T05:01:12.347Z,8.38
2022-10-05T05:03:58.035Z,8.43
2022-10-05T05:06:37.642Z,8.34
2022-10-05T05:09:21.238Z,8.20
2022-10-05T05:12:18.446Z,8.59
2022-10-05T05:15:22.533Z,8.74
2022-10-05T05:18:17.125Z,8.79
2022-10-05T05:20:57.126Z,8.67
2022-10-05T05:23:44.294Z,8.61
2022-10-05T05:26:29.489Z,8.69
2022-10-05T05:29:02.144Z,8.76
2022-10-05T05:31:48.205Z,8.64
2022-10-05T05:34:36.930Z,8.59
2022-10-05T05:37:51.298Z,8.82
2022-10-05T05:40:17.759Z,8.98
2022-10-05T05:43:06.636Z,8.95
2022-10-05T05:45:56.629Z,9.11
2022-10-05T05:48:37.894Z,9.11
2022-10-05T05:51:10.750Z,9.16
2022-10-05T05:53:45.418Z,8.87
2022-10-05T05:56:20.931Z,9.10
2022-10-05T05:59:15.754Z,8.91
2022-10-05T06:01:47.729Z,9.02
2022-10-05T06:04:41.293Z,9.13
2022-10-05T06:07:16.123Z,8.99
2022-10-05T06:09:53.875Z,9.07
2022-10-05T06:12:30.218Z,9.23
2022-10-05T06:15:26.354Z,8.96
2022-10-05T06:17:56.327Z,9.23
2022-10-05T06:20:38.191Z,8.88
2022-10-05T06:23:14.228Z,8.87
2022-10-05T06:26:14.785Z,8.93
2022-10-05T06:28:43.210Z,9.10
2022-10-05T06:31:29.858Z,9.09
2022-10-05T06:34:19.829Z,9.28
2022-10-05T06:36:55.714Z,9.12
2022-10-05T06:40:02.152Z,9.18
2022-10-05T06:42:50.906Z,9.52
2022-10-05T06:46:00.085Z,9.54
2022-10-05T06:49:14.229Z,9.50
2022-10-05T06:52:08.198Z,9.54
2022-10-05T06:54:48.674Z,9.67
2022-10-05T06:57:31.042Z,9.62
2022-10-05T07:00:02.610Z,10.06
2022-10-05T07:02:45.257Z,10.03
2022-10-05T07:05:40.509Z,10.07
2022-10-05T07:08:19.966Z,10.03
2022-10-05T07:10:52.626Z,10.06
2022-10-05T07:13:31.397Z,10.22
2022-10-05T07:16:45.452Z,10.39
2022-10-05T07:19:37.668Z,10.91
2022-10-05T07:22:34.078Z,10.92
2022-10-05T07:25:13.234Z,10.96
2022-10-05T07:28:05.297Z,10.92
2022-10-05T07:31:00.486Z,11.12
2022-10-05T07:33:45.868Z,11.11
2022-10-05T07:36:37.198Z,10.98
2022-10-05T07:39:23.526Z,11.21
2022-10-05T07:42:03.270Z,10.85
2022-10-05T07:44:41.457Z,11.03
2022-10-05T07:47:22.360Z,10.96
2022-10-05T07:49:59.627Z,11.34
2022-10-05T07:52:42.055Z,11.51
2022-10-05T07:55:25.187Z,11.36
2022-10-05T07:58:13.928Z,11.69
2022-10-05T08:01:03.697Z,11.72
2022-10-05T08:03:43.583Z,11.55
2022-10-05T08:06:46.233Z,11.72
2022-10-05T08:09:37.155Z,11.85
2022-10-05T08:12:09.512Z,11.66
2022-10-05T08:14:54.654Z,11.84
2022-10-05T08:17:40.916Z,11.75
2022-10-05T08:20:18.696Z,11.69
2022-10-05T08:22:57.034Z,11.60
2022-10-05T08:25:47.761Z,11.77
2022-10-05T08:28:34.123Z,11.75
2022-10-05T08:31:24.883Z,12.02
2022-10-05T08:34:04.708Z,11.84
2022-10-05T08:36:40.140Z,11.84
2022-10-05T08:39:16.027Z,11.66
2022-10-05T08:42:03.585Z,11.85
2022-10-05T08:44:45.262Z,11.93
2022-10-05T08:47:40.207Z,12.14
2022-10-05T08:50:35.837Z,11.95
2022-10-05T08:53:18.184Z,11.87
2022-10-05T08:56:19.715Z,12.04
2022-10-05T08:59:16.609Z,12.27
2022-10-05T09:02:03.962Z,12.22
2022-10-05T09:04:42.630Z,12.12
2022-10-05T09:07:28.375Z,12.23
2022-10-05T09:10:25.141Z,12.17
2022-10-05T09:13:25.628Z,12.48
2022-10-05T09:16:21.308Z,12.52
2022-10-05T09:19:17.579Z,12.45
2022-10-05T09:22:21.422Z,12.32
2022-10-05T09:24:53.685Z,12.75
2022-10-05T09:27:43.325Z,12.69
2022-10-05T09:30:20.584Z,12.74
2022-10-05T09:33:08.577Z,13.12
2022-10-05T09:35:53.718Z,13.34
2022-10-05T09:38:51.487Z,13.28
2022-10-05T09:41:44.226Z,13.46
2022-10-05T09:44:11.000Z,13.61
2022-10-05T09:47:19.194Z,13.70
2022-10-05T09:49:57.638Z,13.64
2022-10-05T09:53:01.851Z,13.65
2022-10-05T09:55:47.108Z,13.78
2022-10-05T09:58:33.323Z,13.85
2022-10-05T10:01:09.586Z,13.95
2022-10-05T10:04:13.546Z,14.16
2022-10-05T10:07:04.923Z,14.45
2022-10-05T10:09:59.755Z,14.44
2022-10-05T10:12:50.003Z,14.84
2022-10-05T10:15:40.340Z,14.64
2022-10-05T10:18:27.735Z,15.10
2022-10-05T10:21:33.604Z,15.26
2022-10-05T10:24:14.055Z,15.75
2022-10-05T10:27:08.296Z,16.39
2022-10-05T10:29:57.429Z,16.27
2022-10-05T10:32:42.409Z,16.78
2022-10-05T10:35:11.927Z,16.95
2022-10-05T10:38:12.923Z,16.70
2022-10-05T10:41:06.600Z,16.73
2022-10-05T10:43:55.347Z,16.89
2022-10-05T10:46:59.559Z,17.10
2022-10-05T10:49:31.806Z,16.97
2022-10-05T10:52:17.013Z,17.19
2022-10-05T10:55:05.483Z,17.25
2022-10-05T10:57:44.143Z,17.30
2022-10-05T11:00:17.420Z,16.83
2022-10-05T11:03:05.063Z,17.04
2022-10-05T11:05:48.793Z,16.90
2022-10-05T11:08:16.045Z,17.25
2022-10-05T11:11:13.495Z,17.45
2022-10-05T11:14:27.651Z,17.61
2022-10-05T11:17:18.469Z,17.74
2022-10-05T11:20:02.953Z,18.01
2022-10-05T11:22:50.598Z,17.49
2022-10-05T11:25:27.717Z,17.69
2022-10-05T11:28:10.526Z,17.90
2022-10-05T11:31:04.955Z,18.26
2022-10-05T11:34:09.836Z,17.95
2022-10-05T11:37:13.728Z,18.43
2022-10-05T11:39:44.412Z,19.09
2022-10-05T11:42:20.255Z,19.45
2022-10-05T11:45:15.695Z,20.00
2022-10-05T11:47:45.530Z,20.11
2022-10-05T11:50:26.840Z,20.43
2022-10-05T11:53:14.468Z,21.12
2022-10-05T11:55:43.930Z,21.56
2022-10-05T11:58:23.296Z,21.60
2022-10-05T12:00:56.536Z,22.48
2022-10-05T12:03:49.595Z,21.91
2022-10-05T12:06:34.138Z,23.65
2022-10-05T12:09:04.731Z,24.39
2022-10-05T12:11:57.682Z,25.56
2022-10-05T12:14:30.112Z,24.85
2022-10-05T12:17:02.813Z,25.56
2022-10-05T12:19:36.555Z,25.88
2022-10-05T12:22:04.088Z,26.17
2022-10-05T12:24:36.833Z,25.53
2022-10-05T12:27:14.129Z,24.67
2022-10-05T12:29:44.236Z,24.21
2022-10-05T12:32:21.221Z,25.13
2022-10-05T12:34:50.651Z,24.80
2022-10-05T12:37:52.818Z,25.23
2022-10-05T12:40:36.017Z,24.93
2022-10-05T12:43:21.401Z,25.30
2022-10-05T12:45:58.912Z,25.52
2022-10-05T12:48:39.341Z,25.23
2022-10-05T12:51:05.864Z,25.42
2022-10-05T12:53:48.289Z,25.66
2022-10-05T12:56:30.831Z,25.41
2022-10-05T12:59:31.253Z,24.89
2022-10-05T13:02:06.094Z,23.43
2022-10-05T13:04:58.216Z,22.20
2022-10-05T13:07:56.752Z,21.11
2022-10-05T13:10:35.910Z,20.82
2022-10-05T13:13:35.753Z,20.66
2022-10-05T13:16:17.853Z,20.60
2022-10-05T13:19:12.308Z,20.47
2022-10-05T13:22:10.941Z,20.24
2022-10-05T13:25:00.823Z,20.28
2022-10-05T13:27:31.775Z,20.10
2022-10-05T13:30:17.087Z,20.01
2022-10-05T13:32:48.030Z,20.01
2022-10-05T13:35:38.627Z,20.04
2022-10-05T13:38:15.071Z,20.04
2022-10-05T13:40:53.761Z,19.99
2022-10-05T13:44:05.789Z,19.97
2022-10-05T13:46:49.969Z,19.92
2022-10-05T13:49:27.055Z,19.93
2022-10-05T13:52:19.875Z,20.06
2022-10-05T13:55:14.267Z,20.00
2022-10-05T13:58:06.042Z,19.85
2022-10-05T14:00:43.672Z,19.68
2022-10-05T14:03:34.961Z,19.94
2022-10-05T14:06:10.785Z,19.91
2022-10-05T14:08:51.322Z,19.96
2022-10-05T14:11:23.857Z,19.91
2022-10-05T14:13:52.102Z,19.88
2022-10-05T14:16:22.326Z,19.92
2022-10-05T14:18:58.542Z,19.86
2022-10-05T14:21:30.112Z,19.89
2022-10-05T14:24:42.351Z,19.80
2022-10-05T14:27:23.925Z,19.86
2022-10-05T14:30:08.546Z,19.83
2022-10-05T14:33:07.215Z,19.72
2022-10-05T14:35:51.716Z,19.69
2022-10-05T14:38:35.181Z,19.64
2022-10-05T14:41:07.923Z,19.63
2022-10-05T14:43:35.356Z,19.58
2022-10-05T14:46:27.241Z,19.65
2022-10-05T14:49:13.225Z,19.54
2022-10-05T14:51:42.147Z,19.47
2022-10-05T14:54:52.282Z,19.48
2022-10-05T14:57:34.107Z,19.50
2022-10-05T15:00:04.016Z,19.49
2022-10-05T15:03:04.277Z,19.43
2022-10-05T15:05:44.993Z,19.39
2022-10-05T15:08:11.431Z,19.36
2022-10-05T15:11:08.947Z,19.27
2022-10-05T15:13:42.429Z,19.20
2022-10-05T15:16:19.926Z,19.21
2022-10-05T15:19:21.174Z,19.15
2022-10-05T15:22:41.236Z,19.08
2022-10-05T15:25:22.996Z,19.10
2022-10-05T15:28:08.226Z,19.01
2022-10-05T15:30:42.914Z,18.82
2022-10-05T15:33:18.111Z,18.92
2022-10-05T15:35:44.545Z,18.90
2022-10-05T15:38:27.110Z,18.83
2022-10-05T15:41:15.725Z,18.48
2022-10-05T15:44:15.723Z,18.54
2022-10-05T15:46:56.767Z,18.74
2022-10-05T15:49:43.493Z,18.64
2022-10-05T15:52:27.389Z,18.62
2022-10-05T15:55:20.269Z,18.62
2022-10-05T15:57:59.557Z,18.71
2022-10-05T16:00:27.276Z,18.64
2022-10-05T16:03:25.242Z,18.49
2022-10-05T16:06:18.123Z,18.37
2022-10-05T16:08:58.679Z,18.26
2022-10-05T16:11:31.168Z,18.07
2022-10-05T16:15:08.289Z,17.79
2022-10-05T16:18:06.050Z,17.82
2022-10-05T16:20:38.482Z,17.79
2022-10-05T16:23:28.384Z,17.74
2022-10-05T16:26:19.410Z,17.73
2022-10-05T16:28:59.884Z,17.78
2022-10-05T16:31:37.292Z,17.71
2022-10-05T16:34:17.087Z,17.70
2022-10-05T16:36:49.074Z,17.77
2022-10-05T16:39:30.349Z,17.60
2022-10-05T16:42:06.483Z,17.55
2022-10-05T16:44:50.984Z,17.49
2022-10-05T16:47:43.153Z,17.51
2022-10-05T16:50:20.004Z,17.45
2022-10-05T16:52:54.986Z,17.46
2022-10-05T16:55:30.578Z,17.42
2022-10-05T16:57:59.759Z,17.34
2022-10-05T17:01:10.612Z,17.25
2022-10-05T17:03:54.779Z,17.22
2022-10-05T17:06:54.097Z,17.09
2022-10-05T17:09:45.948Z,16.89
2022-10-05T17:12:38.604Z,16.81
2022-10-05T17:15:30.805Z,16.80
2022-10-05T17:18:12.061Z,16.69
2022-10-05T17:20:42.482Z,16.45
2022-10-05T17:23:31.208Z,16.30
2022-10-05T17:26:33.128Z,16.11
2022-10-05T17:29:12.880Z,16.09
2022-10-05T17:32:18.554Z,16.00
2022-10-05T17:35:04.797Z,15.85
2022-10-05T17:37:38.694Z,15.81
2022-10-05T17:40:30.154Z,15.77
2022-10-05T17:43:25.606Z,15.74
2022-10-05T17:45:55.637Z,15.55
2022-10-05T17:48:42.898Z,15.69
2022-10-05T17:51:56.662Z,15.45
2022-10-05T17:54:42.995Z,15.35
2022-10-05T17:57:09.459Z,15.12
2022-10-05T17:59:55.621Z,15.22
2022-10-05T18:02:28.900Z,15.48
2022-10-05T18:05:12.066Z,15.27
2022-10-05T18:08:16.309Z,15.30
2022-10-05T18:11:16.971Z,15.39
2022-10-05T18:13:49.958Z,15.64
2022-10-05T18:16:54.184Z,15.60
2022-10-05T18:19:23.131Z,15.66
2022-10-05T18:22:06.341Z,15.60
2022-10-05T18:24:52.969Z,15.44
2022-10-05T18:27:34.904Z,15.29
2022-10-05T18:30:31.045Z,15.26
2022-10-05T18:32:57.497Z,15.18
2022-10-05T18:35:42.367Z,15.04
2022-10-05T18:38:21.927Z,15.19
2022-10-05T18:41:14.403Z,14.97
2022-10-05T18:44:00.541Z,14.71
2022-10-05T18:46:44.799Z,14.82
2022-10-05T18:49:43.700Z,14.97
2022-10-05T18:52:26.522Z,15.04
2022-10-05T18:55:32.686Z,14.87
2022-10-05T18:58:17.845Z,14.99
2022-10-05T19:01:21.912Z,14.86
2022-10-05T19:03:54.653Z,14.41
2022-10-05T19:06:26.570Z,14.38
2022-10-05T19:09:19.325Z,14.22
2022-10-05T19:12:14.213Z,14.28
2022-10-05T19:14:49.136Z,14.44
2022-10-05T19:17:18.581Z,14.71
2022-10-05T19:19:54.255Z,14.43
2022-10-05T19:22:48.742Z,14.67
2022-10-05T19:25:43.191Z,14.78
2022-10-05T19:28:20.571Z,14.63
2022-10-05T19:30:47.067Z,14.61
2022-10-05T19:33:26.618Z,14.34
2022-10-05T19:36:06.653Z,14.49
2022-10-05T19:39:01.885Z,14.53
2022-10-05T19:41:35.470Z,14.59
2022-10-05T19:44:24.186Z,14.44
2022-10-05T19:47:01.633Z,14.23
2022-10-05T19:49:43.093Z,13.94
2022-10-05T19:52:13.751Z,14.01
2022-10-05T19:54:41.748Z,13.71
2022-10-05T19:57:17.750Z,13.75
2022-10-05T19:59:48.358Z,13.75
2022-10-05T20:02:16.865Z,13.71
2022-10-05T20:04:45.741Z,13.68
2022-10-05T20:07:15.616Z,13.49
2022-10-05T20:09:59.794Z,13.47
2022-10-05T20:12:52.969Z,13.30
2022-10-05T20:15:53.124Z,13.26
2022-10-05T20:19:03.658Z,13.16
2022-10-05T20:21:39.362Z,13.13
2022-10-05T20:24:10.124Z,13.22
2022-10-05T20:27:03.572Z,12.96
2022-10-05T20:29:37.452Z,12.89
2022-10-05T20:32:15.483Z,12.80
2022-10-05T20:34:44.381Z,13.04
2022-10-05T20:37:13.237Z,13.01
2022-10-05T20:39:40.286Z,13.05
2022-10-05T20:42:07.726Z,13.07
2022-10-05T20:44:34.986Z,13.16
2022-10-05T20:47:01.652Z,13.22
2022-10-05T20:49:30.223Z,13.56
2022-10-05T20:51:58.078Z,13.67
2022-10-05T20:54:25.726Z,13.74
2022-10-05T20:56:54.776Z,13.84
2022-10-05T20:59:22.648Z,13.84
2022-10-05T21:01:49.325Z,13.91
2022-10-05T21:04:22.123Z,13.98
2022-10-05T21:06:48.899Z,13.96
2022-10-05T21:09:19.726Z,14.01
2022-10-05T21:11:50.158Z,14.00
2022-10-05T21:14:17.102Z,13.92
2022-10-05T21:16:45.765Z,13.96
2022-10-05T21:19:14.250Z,13.68
2022-10-05T21:21:45.203Z,13.51
2022-10-05T21:24:13.752Z,13.26
2022-10-05T21:26:41.695Z,13.16
2022-10-05T21:29:12.498Z,13.24
2022-10-05T21:31:40.351Z,13.38
2022-10-05T21:34:07.288Z,13.22
2022-10-05T21:36:34.564Z,13.19
2022-10-05T21:39:01.102Z,13.11
2022-10-05T21:41:27.614Z,13.27
2022-10-05T21:43:54.207Z,13.20
2022-10-05T21:46:25.267Z,13.20
2022-10-05T21:48:52.814Z,13.22
2022-10-05T21:51:20.544Z,13.33
2022-10-05T21:53:51.626Z,13.19
2022-10-05T21:56:22.248Z,13.20
2022-10-05T21:58:50.330Z,13.04
2022-10-05T22:01:22.275Z,13.11
2022-10-05T22:03:49.227Z,13.03
2022-10-05T22:06:15.747Z,13.02
2022-10-05T22:08:42.206Z,12.78
2022-10-05T22:11:15.284Z,12.90
2022-10-05T22:13:47.279Z,12.90
2022-10-05T22:16:15.032Z,12.93
2022-10-05T22:18:42.502Z,12.94
2022-10-05T22:21:12.034Z,12.88
2022-10-05T22:23:43.436Z,12.75
2022-10-05T22:26:12.513Z,12.80
2022-10-05T22:28:40.017Z,12.92
2022-10-05T22:31:09.428Z,12.78
2022-10-05T22:33:36.966Z,12.54
2022-10-05T22:36:05.710Z,12.70
2022-10-05T22:38:32.742Z,12.69
2022-10-05T22:40:59.556Z,12.65
2022-10-05T22:43:27.012Z,12.63
2022-10-05T22:45:54.271Z,12.68
2022-10-05T22:48:20.809Z,12.72
2022-10-05T22:50:47.853Z,12.80
2022-10-05T22:53:14.494Z,12.76
2022-10-05T22:55:40.994Z,12.67
2022-10-05T22:58:07.654Z,12.61
2022-10-05T23:00:56.397Z,12.50
2022-10-05T23:03:20.647Z,12.73
2022-10-05T23:05:47.159Z,12.60
2022-10-05T23:08:13.588Z,12.62
2022-10-05T23:10:40.116Z,12.75
2022-10-05T23:13:08.661Z,12.89
2022-10-05T23:15:35.802Z,12.87
2022-10-05T23:18:02.264Z,12.95
2022-10-05T23:20:29.061Z,12.85
2022-10-05T23:22:55.521Z,12.87
2022-10-05T23:25:22.214Z,13.04
2022-10-05T23:27:48.833Z,13.14
2022-10-05T23:30:15.605Z,13.03
2022-10-05T23:32:44.097Z,12.88
2022-10-05T23:35:12.752Z,12.93
2022-10-05T23:37:44.108Z,12.79
2022-10-05T23:40:13.115Z,12.68
2022-10-05T23:42:40.965Z,12.61
2022-10-05T23:45:10.008Z,12.61
2022-10-05T23:47:36.486Z,12.44
2022-10-05T23:50:04.554Z,12.55
2022-10-05T23:52:31.007Z,12.40
2022-10-05T23:54:57.524Z,12.22
2022-10-05T23:57:24.072Z,12.29
2022-10-05T23:59:50.572Z,12.21
